Time;durP1;ratioP1;P1;durP2;ratioP2;P2;SDS_P1;SDS_P2;PMS_P1;PMS_P2;Temp;Humidity;BMP_temperature;BMP_pressure;BME280_temperature;BME280_humidity;BME280_pressure;Samples;Min_cycle;Max_cycle;Signal;HPM_P1;HPM_P2
2021/07/25 00:00:17;;;;;;;12.30;8.63;;;;;;;23.86;47.28;94024.84;4988492;28;20053;-73
2021/07/25 00:02:42;;;;;;;11.27;8.77;;;;;;;23.86;47.26;94030.25;4988043;28;20030;-73
2021/07/25 00:05:09;;;;;;;9.70;7.82;;;;;;;23.78;47.38;94023.22;4989586;28;20038;-73
2021/07/25 00:07:36;;;;;;;12.60;9.65;;;;;;;23.75;47.62;94025.50;4980790;28;20588;-74
2021/07/25 00:10:05;;;;;;;13.77;8.80;;;;;;;23.58;47.51;94009.06;4986199;28;20157;-73
2021/07/25 00:12:31;;;;;;;14.15;9.38;;;;;;;23.63;47.97;94031.13;4982083;28;20270;-73
2021/07/25 00:14:57;;;;;;;10.43;9.13;;;;;;;23.59;47.96;94027.59;4985702;28;20083;-72
2021/07/25 00:17:22;;;;;;;12.80;9.13;;;;;;;23.50;48.07;94032.50;4986303;28;20045;-72
2021/07/25 00:19:48;;;;;;;11.07;9.98;;;;;;;23.43;48.59;94035.03;4983022;28;20066;-73
2021/07/25 00:22:14;;;;;;;9.95;8.57;;;;;;;23.44;48.43;94035.81;4985327;28;20034;-72
2021/07/25 00:24:47;;;;;;;14.35;10.40;;;;;;;23.44;48.13;94033.91;4985784;28;20084;-72
2021/07/25 00:27:13;;;;;;;12.30;9.20;;;;;;;23.50;48.00;94039.81;4986054;28;20124;-72
2021/07/25 00:29:38;;;;;;;12.98;9.63;;;;;;;23.37;48.08;94024.91;4988622;28;20141;-74
2021/07/25 00:32:05;;;;;;;14.30;9.02;;;;;;;23.43;47.78;94035.03;4984501;28;20676;-72
2021/07/25 00:34:33;;;;;;;12.02;9.50;;;;;;;23.47;47.65;94035.91;4981942;28;20192;-73
2021/07/25 00:36:59;;;;;;;13.18;8.98;;;;;;;23.42;47.55;94017.28;4998481;28;20105;-73
2021/07/25 00:39:25;;;;;;;13.45;9.65;;;;;;;23.44;47.62;94033.13;4984649;28;20041;-73
2021/07/25 00:41:51;;;;;;;13.77;9.68;;;;;;;23.29;48.06;94032.13;4986189;28;20333;-73
2021/07/25 00:44:17;;;;;;;9.93;8.93;;;;;;;23.33;48.38;94036.44;4984797;28;20037;-73
2021/07/25 00:46:55;;;;;;;15.90;9.93;;;;;;;23.21;48.52;94022.41;4986148;28;20046;-72
2021/07/25 00:49:21;;;;;;;12.02;10.27;;;;;;;23.28;48.44;94033.28;4984459;28;20101;-73
2021/07/25 00:51:46;;;;;;;11.38;9.65;;;;;;;23.36;48.38;94028.78;4986499;28;20038;-73
2021/07/25 00:54:13;;;;;;;11.55;10.32;;;;;;;23.36;48.35;94026.84;4987162;28;21050;-72
2021/07/25 00:56:39;;;;;;;13.82;9.93;;;;;;;23.22;48.17;94008.53;4987702;28;20041;-72
2021/07/25 00:59:04;;;;;;;15.43;9.70;;;;;;;23.36;48.72;94024.13;4987151;28;20038;-73
2021/07/25 01:01:30;;;;;;;13.20;10.40;;;;;;;23.32;48.32;94024.09;4990595;28;20049;-71
2021/07/25 01:04:12;;;;;;;14.30;10.35;;;;;;;23.37;48.27;94025.69;4985073;28;20572;-73
2021/07/25 01:06:54;;;;;;;13.48;10.10;;;;;;;23.22;48.52;93991.56;4986814;28;20038;-72
2021/07/25 01:09:34;;;;;;;11.68;10.35;;;;;;;23.28;48.46;94019.78;4984523;28;20357;-73
2021/07/25 01:12:05;;;;;;;15.13;10.45;;;;;;;23.26;48.21;94012.06;4985824;28;20026;-73
2021/07/25 01:14:33;;;;;;;12.63;10.18;;;;;;;23.18;48.11;93985.34;4985818;28;20022;-73
2021/07/25 01:17:28;;;;;;;14.43;9.55;;;;;;;23.29;47.92;94007.88;4983997;28;20050;-73
2021/07/25 01:19:57;;;;;;;10.23;8.80;;;;;;;23.19;48.29;94009.25;4986276;28;20042;-72
2021/07/25 01:22:24;;;;;;;13.38;8.88;;;;;;;23.14;48.14;94011.50;4986970;28;20095;-72
2021/07/25 01:24:49;;;;;;;13.43;9.82;;;;;;;22.98;47.89;93991.97;4987535;28;20126;-73
2021/07/25 01:27:40;;;;;;;10.98;9.23;;;;;;;23.04;48.27;94009.41;4988991;28;20040;-73
2021/07/25 01:30:10;;;;;;;10.88;8.90;;;;;;;22.97;48.61;94014.69;4983874;28;20041;-72
2021/07/25 01:32:37;;;;;;;11.68;10.50;;;;;;;22.83;48.47;93993.66;4986157;28;20042;-73
2021/07/25 01:35:04;;;;;;;15.05;9.93;;;;;;;22.93;48.92;94016.53;4988154;28;20045;-71
2021/07/25 01:37:31;;;;;;;13.80;10.13;;;;;;;22.73;49.26;93992.34;5001225;28;20038;-73
2021/07/25 01:39:57;;;;;;;11.82;9.43;;;;;;;22.55;49.15;93967.00;4985496;28;20053;-72
2021/07/25 01:42:29;;;;;;;10.70;9.63;;;;;;;22.72;49.18;94001.59;4985586;28;20038;-72
2021/07/25 01:44:55;;;;;;;13.35;10.35;;;;;;;22.83;48.99;94013.31;4983482;28;20026;-72
2021/07/25 01:47:20;;;;;;;16.65;10.82;;;;;;;22.84;49.07;94004.09;4985752;28;20030;-70
2021/07/25 01:49:46;;;;;;;13.07;10.10;;;;;;;22.89;48.94;94011.88;4988821;28;20043;-72
2021/07/25 01:52:11;;;;;;;10.20;9.20;;;;;;;22.91;49.02;94013.44;4985018;28;20042;-73
2021/07/25 01:54:37;;;;;;;12.32;9.40;;;;;;;22.85;48.41;94011.03;4983809;28;20114;-72
2021/07/25 01:57:02;;;;;;;11.93;9.40;;;;;;;22.83;48.49;94010.63;4983989;28;20025;-73
2021/07/25 01:59:27;;;;;;;10.80;8.57;;;;;;;22.79;48.71;94007.09;4984885;28;20054;-72
2021/07/25 02:01:53;;;;;;;16.77;8.52;;;;;;;22.75;48.72;94010.88;4989552;28;20424;-73
2021/07/25 02:04:18;;;;;;;9.60;8.60;;;;;;;22.66;48.71;94008.38;4988455;28;20046;-72
2021/07/25 02:06:43;;;;;;;10.80;7.68;;;;;;;22.66;48.67;94008.38;4982745;28;20092;-73
2021/07/25 02:09:12;;;;;;;10.30;8.88;;;;;;;22.68;48.90;94022.25;4986554;28;20423;-73
2021/07/25 02:11:38;;;;;;;11.10;9.65;;;;;;;22.71;48.86;94021.59;4983246;28;20883;-73
2021/07/25 02:14:04;;;;;;;12.18;9.13;;;;;;;22.62;49.04;94031.00;4982473;28;21025;-73
2021/07/25 02:16:29;;;;;;;11.52;8.50;;;;;;;22.42;49.37;94016.81;4980653;28;20030;-73
2021/07/25 02:18:55;;;;;;;12.55;8.98;;;;;;;22.51;49.33;94032.72;4985298;28;20049;-72
2021/07/25 02:21:21;;;;;;;11.07;9.75;;;;;;;22.44;49.86;94033.38;4986633;28;20041;-73
2021/07/25 02:23:47;;;;;;;10.93;9.15;;;;;;;22.46;49.72;94033.81;4985420;28;20038;-72
2021/07/25 02:26:12;;;;;;;14.90;9.43;;;;;;;22.47;49.58;94029.97;4984620;28;20061;-72
2021/07/25 02:28:38;;;;;;;10.27;9.02;;;;;;;22.41;49.56;94036.78;4990542;28;20085;-73
2021/07/25 02:31:03;;;;;;;14.38;10.30;;;;;;;22.27;50.09;94029.22;4991931;28;20427;-72
2021/07/25 02:33:28;;;;;;;14.48;10.65;;;;;;;22.25;49.92;94015.34;4988336;28;20489;-71
2021/07/25 02:35:56;;;;;;;11.48;9.50;;;;;;;22.32;50.07;94028.16;4989836;28;20037;-72
2021/07/25 02:38:21;;;;;;;12.60;9.18;;;;;;;22.23;50.27;94014.91;4991900;28;20026;-73
2021/07/25 02:40:47;;;;;;;12.85;9.32;;;;;;;22.23;50.27;94025.69;4995086;28;20041;-73
2021/07/25 02:43:12;;;;;;;14.38;10.02;;;;;;;22.25;49.92;94036.09;4991552;28;20161;-73
2021/07/25 02:45:37;;;;;;;14.15;12.32;;;;;;;22.27;49.99;94033.81;4989384;28;20034;-72
2021/07/25 02:48:03;;;;;;;14.90;11.60;;;;;;;22.25;50.09;94031.47;4989968;28;20037;-72
2021/07/25 02:50:28;;;;;;;15.15;11.75;;;;;;;22.23;49.98;94031.06;4989643;28;20181;-72
2021/07/25 02:52:54;;;;;;;15.18;12.27;;;;;;;22.30;49.95;94030.41;4991644;28;20044;-72
2021/07/25 02:55:19;;;;;;;16.67;11.38;;;;;;;22.28;50.10;94024.63;4990496;28;20049;-70
2021/07/25 02:57:45;;;;;;;13.32;11.95;;;;;;;22.34;49.75;94033.94;4988598;28;20521;-73
2021/07/25 03:00:11;;;;;;;11.23;10.13;;;;;;;22.31;49.88;94024.69;4989917;28;20062;-73
2021/07/25 03:02:37;;;;;;;12.68;10.15;;;;;;;22.18;49.93;94003.66;4989897;28;20035;-72
2021/07/25 03:05:04;;;;;;;11.55;10.10;;;;;;;22.29;49.85;94036.94;4987408;28;20373;-74
2021/07/25 03:07:29;;;;;;;11.55;10.43;;;;;;;22.21;50.23;94036.03;4996610;28;20670;-72
2021/07/25 03:09:54;;;;;;;10.93;9.75;;;;;;;22.18;50.48;94035.97;4989794;28;20069;-72
2021/07/25 03:12:20;;;;;;;14.30;10.77;;;;;;;22.03;50.94;94035.69;4988447;28;20527;-73
2021/07/25 03:14:45;;;;;;;13.85;9.90;;;;;;;21.69;51.25;94023.03;4990397;28;20053;-73
2021/07/25 03:17:11;;;;;;;12.60;10.20;;;;;;;21.82;51.79;94045.97;4987756;28;20603;-72
2021/07/25 03:19:36;;;;;;;18.35;11.25;;;;;;;21.68;52.13;94056.44;4988986;28;20050;-72
2021/07/25 03:22:04;;;;;;;14.80;12.00;;;;;;;21.64;52.36;94060.97;4988353;28;20161;-73
2021/07/25 03:24:31;;;;;;;13.35;10.65;;;;;;;21.62;52.31;94057.84;4989965;28;20505;-71
2021/07/25 03:26:56;;;;;;;12.70;10.63;;;;;;;21.51;52.51;94062.97;4987927;28;20080;-73
2021/07/25 03:29:21;;;;;;;12.35;10.80;;;;;;;21.38;52.73;94037.34;4991912;28;20026;-73
2021/07/25 03:31:47;;;;;;;12.93;10.82;;;;;;;21.47;53.18;94058.66;4989475;28;20069;-72
2021/07/25 03:34:12;;;;;;;11.65;10.43;;;;;;;21.55;52.83;94065.75;5004938;28;20591;-72
2021/07/25 03:36:38;;;;;;;17.35;11.10;;;;;;;21.59;52.95;94069.31;4989760;28;20069;-73
2021/07/25 03:39:11;;;;;;;12.95;9.95;;;;;;;21.68;52.58;94067.19;4987741;28;20026;-72
2021/07/25 03:41:36;;;;;;;12.02;9.88;;;;;;;21.78;52.46;94076.63;4988418;28;20014;-72
2021/07/25 03:44:02;;;;;;;13.73;10.30;;;;;;;21.85;52.06;94074.84;4989004;28;20038;-72
2021/07/25 03:46:27;;;;;;;12.32;11.13;;;;;;;22.00;51.77;94074.06;4986058;28;20065;-73
2021/07/25 03:48:53;;;;;;;14.00;10.63;;;;;;;22.10;51.53;94074.63;4987567;28;20054;-73
2021/07/25 03:51:18;;;;;;;15.93;12.13;;;;;;;21.95;51.71;94058.19;4988631;28;20514;-72
2021/07/25 03:53:44;;;;;;;15.38;12.40;;;;;;;22.11;51.67;94076.97;4989910;28;20071;-74
2021/07/25 03:56:09;;;;;;;15.20;12.77;;;;;;;22.21;51.53;94084.47;4988127;28;20424;-73
2021/07/25 03:58:35;;;;;;;13.68;11.30;;;;;;;22.34;51.12;94079.72;4987907;28;20714;-73
2021/07/25 04:01:00;;;;;;;16.15;11.32;;;;;;;22.42;51.16;94084.91;4988600;28;20046;-73
2021/07/25 04:03:26;;;;;;;11.85;10.63;;;;;;;22.54;50.87;94092.03;4987158;28;20045;-71
2021/07/25 04:05:51;;;;;;;14.38;12.23;;;;;;;22.59;50.61;94089.06;4987348;28;20073;-73
2021/07/25 04:08:17;;;;;;;12.77;11.38;;;;;;;22.65;50.51;94098.41;4986559;28;20049;-73
2021/07/25 04:10:44;;;;;;;15.35;12.25;;;;;;;22.72;49.97;94098.59;4984887;28;20073;-73
2021/07/25 04:13:10;;;;;;;15.63;12.02;;;;;;;22.71;50.13;94090.84;4988923;28;20112;-73
2021/07/25 04:15:45;;;;;;;14.52;12.43;;;;;;;22.80;49.92;94100.25;4988072;28;20534;-72
2021/07/25 04:18:10;;;;;;;14.73;12.50;;;;;;;22.71;50.02;94091.63;4989480;28;20038;-73
2021/07/25 04:20:36;;;;;;;17.05;12.13;;;;;;;22.82;49.99;94102.59;4986984;28;20038;-72
2021/07/25 04:23:02;;;;;;;16.85;12.45;;;;;;;22.77;50.38;94098.25;4985259;28;20037;-73
2021/07/25 04:25:34;;;;;;;18.27;13.13;;;;;;;22.75;50.61;94108.63;4990259;28;20069;-73
2021/07/25 04:28:00;;;;;;;19.23;12.90;;;;;;;22.79;50.35;94093.31;4988390;28;21139;-71
2021/07/25 04:30:27;;;;;;;14.45;11.90;;;;;;;22.85;50.25;94102.66;4990624;28;20468;-72
2021/07/25 04:32:54;;;;;;;14.80;12.43;;;;;;;22.89;50.28;94113.50;4986066;28;20108;-72
2021/07/25 04:35:20;;;;;;;15.15;12.32;;;;;;;22.79;50.16;94104.09;4986897;28;20105;-72
2021/07/25 04:37:51;;;;;;;15.90;12.85;;;;;;;22.81;50.69;94109.91;4985674;28;20412;-72
2021/07/25 04:40:17;;;;;;;17.23;13.13;;;;;;;22.82;50.20;94105.31;4984871;28;20637;-73
2021/07/25 04:42:47;;;;;;;15.73;12.45;;;;;;;22.74;50.87;94099.00;4986741;28;20040;-72
2021/07/25 04:45:15;;;;;;;15.15;13.30;;;;;;;22.82;50.53;94108.75;4984622;28;20053;-73
2021/07/25 04:47:49;;;;;;;18.13;13.18;;;;;;;22.81;50.26;94087.56;4995755;28;20061;-72
2021/07/25 04:50:22;;;;;;;14.93;13.32;;;;;;;23.03;49.82;94107.56;4985915;28;20082;-73
2021/07/25 04:52:51;;;;;;;14.27;12.52;;;;;;;23.00;49.83;94092.13;4987031;28;20375;-73
2021/07/25 04:55:25;;;;;;;15.63;12.65;;;;;;;23.03;50.48;94102.19;4983775;28;20047;-73
2021/07/25 04:58:02;;;;;;;16.40;12.50;;;;;;;23.09;49.77;94106.94;4987896;28;20068;-72
2021/07/25 05:00:30;;;;;;;14.65;12.80;;;;;;;22.95;50.30;94089.72;4983536;28;20033;-73
2021/07/25 05:03:05;;;;;;;13.85;12.40;;;;;;;23.12;50.32;94116.19;4987013;28;20022;-73
2021/07/25 05:05:32;;;;;;;14.50;12.80;;;;;;;22.99;50.49;94117.53;4990441;28;20449;-73
2021/07/25 05:08:01;;;;;;;18.98;13.60;;;;;;;23.28;50.52;94108.78;4989451;28;20042;-71
2021/07/25 05:10:29;;;;;;;14.95;12.25;;;;;;;23.20;50.01;94117.91;4985046;28;20626;-72
2021/07/25 05:12:58;;;;;;;19.23;14.80;;;;;;;22.95;50.64;94114.78;4988709;28;20042;-72
2021/07/25 05:15:32;;;;;;;14.07;12.60;;;;;;;23.03;50.79;94119.13;4988158;28;20437;-73
2021/07/25 05:18:09;;;;;;;16.70;12.73;;;;;;;23.29;50.84;94116.50;4984872;28;20038;-72
2021/07/25 05:20:56;;;;;;;19.75;13.45;;;;;;;23.43;51.07;94110.56;4988015;28;20033;-72
2021/07/25 05:23:24;;;;;;;18.00;12.95;;;;;;;23.20;50.86;94117.91;4988996;28;20050;-73
2021/07/25 05:25:52;;;;;;;16.75;13.88;;;;;;;23.56;50.07;94124.66;4985646;28;20133;-73
2021/07/25 05:28:20;;;;;;;16.08;12.98;;;;;;;23.69;50.05;94126.03;4988128;28;20030;-72
2021/07/25 05:30:55;;;;;;;14.38;12.75;;;;;;;23.40;50.14;94099.72;4986179;28;20054;-72
2021/07/25 05:33:22;;;;;;;14.85;13.10;;;;;;;23.66;49.98;94127.50;4986951;28;20137;-73
2021/07/25 05:35:49;;;;;;;18.70;13.45;;;;;;;23.71;48.76;94131.81;4987900;28;20030;-72
2021/07/25 05:38:16;;;;;;;17.23;12.82;;;;;;;23.66;48.59;94107.84;4982631;28;20041;-70
2021/07/25 05:40:41;;;;;;;19.13;12.65;;;;;;;23.85;48.95;94128.59;4987597;28;20280;-71
2021/07/25 05:43:07;;;;;;;20.00;12.50;;;;;;;23.80;48.96;94118.09;4985234;28;20057;-72
2021/07/25 05:45:33;;;;;;;17.05;12.48;;;;;;;23.93;48.80;94114.03;4987210;28;20030;-72
2021/07/25 05:47:59;;;;;;;17.17;11.13;;;;;;;24.02;48.71;94109.13;4983673;28;20534;-73
2021/07/25 05:50:24;;;;;;;16.02;12.88;;;;;;;24.05;48.18;94130.00;4988040;28;20029;-72
2021/07/25 05:52:55;;;;;;;20.35;12.75;;;;;;;24.05;48.18;94124.59;4984191;28;20073;-73
2021/07/25 05:55:23;;;;;;;17.80;12.73;;;;;;;23.68;48.15;94070.50;4987701;28;20408;-73
2021/07/25 05:57:49;;;;;;;19.30;12.90;;;;;;;24.18;47.72;94139.47;4983739;28;20440;-74
2021/07/25 06:00:14;;;;;;;15.60;12.80;;;;;;;23.97;48.42;94139.94;4985100;28;20321;-73
2021/07/25 06:02:54;;;;;;;17.85;12.85;;;;;;;24.00;48.42;94136.50;4983433;28;20022;-73
2021/07/25 06:05:20;;;;;;;16.98;12.23;;;;;;;24.19;47.93;94138.31;4985968;28;20049;-72
2021/07/25 06:07:46;;;;;;;14.57;12.35;;;;;;;24.09;47.20;94130.84;4986744;28;20092;-72
2021/07/25 06:10:13;;;;;;;15.52;13.10;;;;;;;24.27;47.17;94150.78;4984139;28;20157;-73
2021/07/25 06:12:39;;;;;;;15.55;11.98;;;;;;;24.29;47.68;94132.28;4982511;28;20042;-72
2021/07/25 06:15:05;;;;;;;15.05;12.38;;;;;;;24.32;46.91;94150.47;4986859;28;20034;-73
2021/07/25 06:17:31;;;;;;;15.35;11.82;;;;;;;24.14;47.56;94133.97;4985878;28;20396;-73
2021/07/25 06:19:56;;;;;;;14.57;11.55;;;;;;;24.41;47.04;94145.56;4984745;28;20039;-73
2021/07/25 06:22:22;;;;;;;14.73;11.68;;;;;;;24.54;47.09;94151.50;4986756;28;20034;-72
2021/07/25 06:24:47;;;;;;;12.60;11.27;;;;;;;24.62;46.42;94149.69;4982369;28;20404;-73
2021/07/25 06:27:12;;;;;;;16.23;10.30;;;;;;;24.70;46.65;94148.59;4986882;28;20045;-73
2021/07/25 06:29:38;;;;;;;17.60;12.95;;;;;;;24.83;45.81;94147.19;4985976;28;20378;-73
2021/07/25 06:32:04;;;;;;;14.57;11.38;;;;;;;24.86;44.93;94151.88;4986619;28;20034;-73
2021/07/25 06:34:29;;;;;;;12.23;11.00;;;;;;;24.67;46.26;94133.13;4987127;28;20057;-73
2021/07/25 06:36:55;;;;;;;15.98;12.98;;;;;;;24.83;45.94;94147.97;4985853;28;20072;-73
2021/07/25 06:39:20;;;;;;;14.77;10.50;;;;;;;24.92;45.59;94140.38;4986919;28;20043;-73
2021/07/25 06:41:46;;;;;;;11.98;10.20;;;;;;;25.08;45.25;94148.28;4986324;28;20044;-73
2021/07/25 06:44:11;;;;;;;18.55;11.00;;;;;;;25.19;44.03;94149.16;4987080;28;20074;-73
2021/07/25 06:46:36;;;;;;;19.77;11.85;;;;;;;25.24;44.68;94162.34;4983109;28;20501;-73
2021/07/25 06:49:02;;;;;;;14.80;12.02;;;;;;;25.27;44.76;94156.19;4984256;28;20042;-73
2021/07/25 06:51:27;;;;;;;13.93;11.55;;;;;;;25.34;44.95;94156.25;4983596;28;20579;-73
2021/07/25 06:53:52;;;;;;;13.45;11.60;;;;;;;25.25;44.99;94147.69;4989170;28;20037;-72
2021/07/25 06:56:18;;;;;;;16.00;11.55;;;;;;;25.29;45.33;94132.25;4984873;28;20101;-72
2021/07/25 06:58:44;;;;;;;13.23;11.50;;;;;;;25.52;44.45;94155.63;4986546;28;20038;-72
2021/07/25 07:01:10;;;;;;;13.70;11.95;;;;;;;25.45;44.70;94151.72;4980280;28;20066;-73
2021/07/25 07:03:36;;;;;;;16.13;11.32;;;;;;;25.56;45.17;94146.41;4980088;28;20539;-73
2021/07/25 07:06:08;;;;;;;15.35;11.23;;;;;;;25.58;44.82;94148.75;4977909;28;20044;-72
2021/07/25 07:08:34;;;;;;;16.70;11.70;;;;;;;25.57;45.05;94149.91;4983565;28;20041;-72
2021/07/25 07:11:00;;;;;;;12.90;11.55;;;;;;;25.59;45.13;94150.31;4985019;28;20037;-74
2021/07/25 07:13:26;;;;;;;15.20;11.45;;;;;;;25.65;44.72;94148.81;4983824;28;20046;-74
2021/07/25 07:15:51;;;;;;;15.43;12.38;;;;;;;25.70;44.51;94134.94;4984952;28;20038;-72
2021/07/25 07:18:18;;;;;;;16.27;11.02;;;;;;;25.87;44.42;94139.69;4988168;28;20444;-75
2021/07/25 07:20:44;;;;;;;13.95;12.50;;;;;;;25.93;44.14;94148.25;4985106;28;20040;-74
2021/07/25 07:23:11;;;;;;;13.30;11.57;;;;;;;26.02;43.86;94144.06;4985920;28;20505;-74
2021/07/25 07:25:40;;;;;;;12.32;10.25;;;;;;;26.08;44.22;94142.56;4981899;28;20042;-72
2021/07/25 07:28:07;;;;;;;13.98;10.85;;;;;;;26.10;44.53;94136.75;4988852;28;20081;-74
2021/07/25 07:30:34;;;;;;;12.32;10.80;;;;;;;26.17;43.60;94137.56;4985241;28;20038;-71
2021/07/25 07:33:10;;;;;;;17.30;11.32;;;;;;;26.34;43.57;94140.78;4982640;28;20616;-74
2021/07/25 07:35:36;;;;;;;18.65;11.45;;;;;;;26.13;43.22;94119.75;4991879;28;20073;-71
2021/07/25 07:38:02;;;;;;;12.98;10.80;;;;;;;26.26;42.99;94143.44;4985972;28;20027;-73
2021/07/25 07:40:28;;;;;;;19.85;11.63;;;;;;;26.23;43.28;94149.63;4985599;28;20789;-74
2021/07/25 07:42:54;;;;;;;13.65;10.63;;;;;;;26.14;44.39;94141.06;4980965;28;20165;-73
2021/07/25 07:45:19;;;;;;;14.50;11.65;;;;;;;26.33;44.55;94139.25;4986775;28;20046;-73
2021/07/25 07:47:49;;;;;;;12.95;11.55;;;;;;;26.37;43.67;94131.91;4986229;28;20034;-73
2021/07/25 07:50:18;;;;;;;12.50;9.85;;;;;;;26.52;43.46;94141.66;4983231;28;20049;-73
2021/07/25 07:52:44;;;;;;;14.75;11.90;;;;;;;26.52;42.79;94141.66;4983343;28;20463;-71
2021/07/25 07:55:10;;;;;;;15.32;11.35;;;;;;;26.66;43.03;94144.41;4987103;28;20173;-74
2021/07/25 07:57:39;;;;;;;15.25;10.68;;;;;;;26.54;42.49;94139.31;4984868;28;20042;-74
2021/07/25 08:00:05;;;;;;;22.20;10.38;;;;;;;26.80;43.09;94152.59;4986260;28;20052;-73
2021/07/25 08:02:31;;;;;;;13.75;9.98;;;;;;;26.90;42.49;94151.88;4988247;28;20037;-73
2021/07/25 08:04:57;;;;;;;15.73;10.88;;;;;;;27.12;42.11;94156.19;4986965;28;20030;-73
2021/07/25 08:07:24;;;;;;;11.18;10.02;;;;;;;27.24;42.01;94143.44;4986259;28;20065;-74
2021/07/25 08:09:51;;;;;;;15.00;9.90;;;;;;;27.27;41.11;94150.81;4991486;28;20053;-72
2021/07/25 08:12:16;;;;;;;16.98;10.65;;;;;;;27.21;41.12;94127.94;4986441;28;20065;-73
2021/07/25 08:14:42;;;;;;;12.75;9.57;;;;;;;27.26;41.03;94136.47;4983583;28;20167;-73
2021/07/25 08:17:07;;;;;;;12.73;8.93;;;;;;;27.53;40.89;94139.63;4984875;28;20030;-74
2021/07/25 08:19:33;;;;;;;12.10;9.55;;;;;;;27.66;41.08;94138.06;4984546;28;20074;-71
2021/07/25 08:21:58;;;;;;;18.55;11.55;;;;;;;27.64;40.07;94124.13;4984111;28;20157;-73
2021/07/25 08:24:24;;;;;;;14.65;11.25;;;;;;;27.64;40.14;94126.84;4984585;28;20046;-72
2021/07/25 08:26:49;;;;;;;10.45;9.35;;;;;;;27.79;40.49;94144.66;4987046;28;20133;-73
2021/07/25 08:29:15;;;;;;;14.65;10.35;;;;;;;27.73;39.79;94123.72;4980706;28;20037;-73
2021/07/25 08:31:40;;;;;;;16.10;10.25;;;;;;;27.95;39.32;94133.41;4985583;28;20157;-71
2021/07/25 08:34:05;;;;;;;13.60;9.63;;;;;;;28.10;39.96;94140.34;4986879;28;20045;-74
2021/07/25 08:36:31;;;;;;;15.25;9.25;;;;;;;27.80;39.55;94140.78;4985474;28;20817;-75
2021/07/25 08:38:57;;;;;;;13.00;9.48;;;;;;;27.53;39.21;94132.25;4983908;28;20025;-72
2021/07/25 08:41:47;;;;;;;11.70;9.90;;;;;;;27.71;40.59;94134.97;4984192;28;20127;-73
2021/07/25 08:44:22;;;;;;;9.68;8.07;;;;;;;27.73;39.30;94138.06;4983985;28;20044;-72
2021/07/25 08:46:53;;;;;;;;;;;;;;;27.84;38.81;94136.13;5000316;28;20030;-71
2021/07/25 08:49:25;;;;;;;12.32;9.30;;;;;;;28.06;39.05;94125.22;4984316;28;19976;-70
2021/07/25 08:51:58;;;;;;;11.20;9.55;;;;;;;28.16;38.27;94116.31;4984178;28;20532;-73
2021/07/25 08:54:28;;;;;;;10.63;9.30;;;;;;;28.24;38.54;94128.72;4981864;28;20042;-74
2021/07/25 08:56:58;;;;;;;10.00;8.10;;;;;;;28.31;39.23;94113.16;4981484;28;20635;-74
2021/07/25 08:59:28;;;;;;;10.93;8.38;;;;;;;28.29;37.44;94117.44;4984655;28;20135;-73
2021/07/25 09:02:00;;;;;;;10.02;7.90;;;;;;;28.52;37.29;94112.31;4984749;28;20415;-74
2021/07/25 09:04:29;;;;;;;9.30;8.23;;;;;;;28.51;37.45;94126.28;4981809;28;20038;-73
2021/07/25 09:06:55;;;;;;;12.95;8.65;;;;;;;28.06;36.50;94117.84;4978741;28;20042;-73
2021/07/25 09:09:21;;;;;;;7.35;6.60;;;;;;;28.08;35.70;94112.03;4982880;28;20046;-72
2021/07/25 09:11:48;;;;;;;10.25;6.90;;;;;;;28.27;37.67;94106.19;4978703;28;20038;-75
2021/07/25 09:14:13;;;;;;;8.45;6.68;;;;;;;28.00;34.56;94097.69;4981692;28;20088;-74
2021/07/25 09:16:39;;;;;;;10.45;6.22;;;;;;;27.92;34.88;94105.06;4980197;28;20034;-74
2021/07/25 09:19:05;;;;;;;7.50;6.72;;;;;;;27.85;34.84;94102.38;4982999;28;20038;-73
2021/07/25 09:21:40;;;;;;;16.42;7.70;;;;;;;27.99;34.60;94107.00;4981148;28;20042;-73
2021/07/25 09:24:34;;;;;;;;;;;;;;;28.14;35.64;94102.34;4982242;28;20077;-75
2021/07/25 09:27:03;;;;;;;6.15;5.30;;;;;;;28.32;34.84;94094.91;4977608;28;19965;-74
2021/07/25 09:29:34;;;;;;;8.80;5.13;;;;;;;28.60;33.95;94096.75;4983869;28;20030;-75
2021/07/25 09:32:13;;;;;;;6.00;5.38;;;;;;;28.51;32.91;94090.94;4978717;28;20121;-73
2021/07/25 09:34:47;;;;;;;5.65;4.40;;;;;;;28.51;31.71;94099.88;4981237;28;20172;-73
2021/07/25 09:37:17;;;;;;;11.77;5.25;;;;;;;28.67;32.48;94091.28;4981423;28;20038;-73
2021/07/25 09:39:48;;;;;;;8.55;5.65;;;;;;;28.39;32.74;94081.31;4997465;28;20038;-72
2021/07/25 09:42:14;;;;;;;7.50;5.45;;;;;;;28.61;33.98;94087.41;4979106;28;20038;-73
2021/07/25 09:44:53;;;;;;;10.13;4.85;;;;;;;28.78;32.01;94098.22;4983506;28;20053;-73
2021/07/25 09:47:37;;;;;;;6.97;4.63;;;;;;;28.95;32.52;94090.38;4984505;28;20176;-72
2021/07/25 09:50:07;;;;;;;6.57;4.57;;;;;;;28.72;30.62;94094.41;4983224;28;20047;-73
2021/07/25 09:52:39;;;;;;;7.22;5.40;;;;;;;28.59;32.26;94085.09;4981864;28;20207;-70
2021/07/25 09:55:07;;;;;;;7.40;4.57;;;;;;;28.70;31.81;94095.91;4981914;28;20034;-73
2021/07/25 09:57:35;;;;;;;6.88;5.07;;;;;;;28.54;32.02;94092.91;4982273;28;20591;-69
2021/07/25 10:00:09;;;;;;;6.72;4.40;;;;;;;28.60;32.18;94083.91;4984210;28;20583;-74
2021/07/25 10:02:38;;;;;;;7.97;5.13;;;;;;;28.82;31.85;94081.91;4979316;28;20072;-74
2021/07/25 10:05:06;;;;;;;7.65;4.53;;;;;;;28.88;32.88;94093.94;4978937;28;20037;-71
2021/07/25 10:07:34;;;;;;;5.20;4.70;;;;;;;29.03;31.88;94083.75;4981865;28;20387;-72
2021/07/25 10:10:00;;;;;;;7.75;5.28;;;;;;;28.85;31.64;94068.28;4984275;28;20116;-72
2021/07/25 10:12:31;;;;;;;7.65;5.22;;;;;;;28.79;32.00;94078.03;4978571;28;20034;-73
2021/07/25 10:14:59;;;;;;;6.70;5.28;;;;;;;29.18;32.46;94093.34;4984312;28;20101;-72
2021/07/25 10:17:26;;;;;;;6.63;4.72;;;;;;;29.12;31.43;94079.41;4980611;28;20495;-72
2021/07/25 10:19:53;;;;;;;4.60;4.03;;;;;;;29.31;30.03;94091.72;4985918;28;20081;-71
2021/07/25 10:22:22;;;;;;;5.35;3.88;;;;;;;29.21;29.07;94076.22;4979698;28;20046;-73
2021/07/25 10:24:52;;;;;;;5.32;4.40;;;;;;;29.07;27.93;94073.59;4981239;28;20049;-72
2021/07/25 10:27:17;;;;;;;3.55;2.63;;;;;;;29.23;27.50;94084.75;4980984;28;20433;-73
2021/07/25 10:29:44;;;;;;;6.32;2.90;;;;;;;28.97;27.37;94088.03;4982723;28;20462;-71
2021/07/25 10:32:10;;;;;;;4.43;3.28;;;;;;;29.40;29.75;94077.66;4981907;28;20026;-73
2021/07/25 10:34:38;;;;;;;7.03;3.72;;;;;;;29.44;27.56;94070.22;4982504;28;20041;-72
2021/07/25 10:37:04;;;;;;;3.40;3.10;;;;;;;29.50;26.72;94077.59;4983092;28;20053;-74
2021/07/25 10:39:31;;;;;;;5.57;3.35;;;;;;;29.59;26.89;94072.44;4982959;28;20044;-72
2021/07/25 10:42:02;;;;;;;4.43;3.55;;;;;;;29.57;27.19;94065.84;4981130;28;22261;-73
2021/07/25 10:44:30;;;;;;;4.80;3.72;;;;;;;29.45;26.49;94074.50;4981106;28;20472;-75
2021/07/25 10:47:18;;;;;;;6.70;4.13;;;;;;;29.38;27.07;94075.34;4987664;28;20117;-72
2021/07/25 10:49:44;;;;;;;6.63;3.78;;;;;;;29.35;26.42;94073.41;4986682;28;20046;-74
2021/07/25 10:52:09;;;;;;;3.55;3.10;;;;;;;29.27;26.34;94052.84;4983518;28;20097;-75
2021/07/25 10:54:48;;;;;;;6.25;3.55;;;;;;;29.57;26.85;94058.44;4984426;28;20046;-77
2021/07/25 10:57:14;;;;;;;3.20;2.83;;;;;;;29.56;27.19;94059.66;4993674;28;20037;-75
2021/07/25 10:59:51;;;;;;;6.75;3.60;;;;;;;29.42;27.51;94056.28;4984101;28;20026;-73
2021/07/25 11:02:22;;;;;;;6.38;3.65;;;;;;;29.52;26.76;94064.31;4986579;28;20156;-73
2021/07/25 11:04:50;;;;;;;8.07;3.83;;;;;;;29.43;27.25;94057.78;4987773;28;20412;-73
2021/07/25 11:07:22;;;;;;;4.38;3.40;;;;;;;29.66;26.99;94052.56;4988681;28;20464;-73
2021/07/25 11:10:06;;;;;;;5.57;3.30;;;;;;;29.56;26.40;94050.69;4982829;28;20229;-73
2021/07/25 11:12:54;;;;;;;6.38;3.28;;;;;;;29.70;26.13;94045.13;4984779;28;20081;-74
2021/07/25 11:15:30;;;;;;;4.13;3.13;;;;;;;29.80;26.17;94044.25;4990960;28;20393;-72
2021/07/25 11:17:57;;;;;;;5.10;3.30;;;;;;;29.62;26.22;94047.13;4988720;28;20033;-73
2021/07/25 11:20:32;;;;;;;5.60;3.17;;;;;;;29.76;25.72;94040.78;4986399;28;20025;-72
2021/07/25 11:22:58;;;;;;;4.07;3.35;;;;;;;29.74;26.05;94026.00;4989176;28;20081;-72
2021/07/25 11:25:34;;;;;;;4.70;3.60;;;;;;;29.89;26.54;94043.78;4987209;28;20162;-72
2021/07/25 11:28:01;;;;;;;4.82;3.53;;;;;;;29.92;26.04;94037.50;4989308;28;20184;-72